Airfield :
LOGIN :

Register | Disclaimer

   EN    FR    IT 

 










Legend :    VFR   Marginal VFR   IFR   Intensive IFR   Very Intensive IFR
Visi :
Ceiling :
>= 8 km
>= 3000ft
5 to 8 km
1000 to 3000 ft
1500m to 5 km
500 to 1000 ft
800 to 1500m
200 to 500 ft
< 800m
< 200 ft
Symbols :   Thunderstorms  Fog  Heavy snow  Heavy precipitations  Wind > 20 kt
SIGMETs :     Misc.  Thunderstorms  Icing  Turbulence  Mountain Waves  Volcanic Ashes







- Airport Elevation : 353 ft
- IATA code : ZAG


LDZA - Zagreb Pleso

CURRENT METAR :
  • 201500Z 06007KT 010V110 9999 FEW045 23/10 Q1019 NOSIG

EXPIRED METARs :
  • 201430Z 06007KT 020V110 9999 FEW045 23/11 Q1019 NOSIG
  • 201400Z 05009KT 340V100 9999 FEW045 23/10 Q1019 NOSIG
  • 201330Z 04010KT 350V070 9999 FEW045 23/10 Q1019 NOSIG
  • 201300Z 04010KT 360V090 9999 FEW045 23/10 Q1019 NOSIG
  • 201230Z 01012KT 340V080 9999 FEW045 23/10 Q1019 NOSIG

TAF TAF LDZA
Valid from the 20 at 12:00 until the 21 at 12:00 UTC


201125Z 2012/2112 05010KT 9999 SCT040 TX23/2015Z TN11/2103Z
PROB30
TEMPO 2012/2018 SHRA FEW030TCU
BECMG 2017/2019 05005KT
BECMG 2108/2110 05010KT
ATIS : +385 1 6-259-214
No reported NOTAMs for that airfield.
1 SIGMET reported for the Zagreb FIR (LDZO) :
 
Severe turbulence
LDZO SIGMET 9 VALID 201200/201600 LDZA
LDZO ZAGREB FIR SEV TURB FCST WI N4536 E01430 - N4347 E01647 - N4334 E01559 - N4443 E01405 - N4536 E01430 SFC/FL050 STNR NC=



MET'MAP, your aeronautical weather chart ! - Copyright ORBIFLY December 2007 - Disclaimer

ORBIFLY MET'MAP TEAM :

Programming & Development : Alexandra Zaïnal
Concept & Development : Baudouin d'Aumeries
Co-Development & Prog : Marc-Olivier Méhu
Technical & hardware support : Manuel Goepfert

Contact : metmap@orbifly.com




SOURCES & CREDITS :

   NOAA